San Rafael, CA

10:10 PM PDT on September 29, 2016 (GMT -0700)
Red Hill | | Change Station

Elev 250 ft 37.98 °N, 122.56 °W | Updated 10 seconds ago

Clear
Clear
52.3 °F
Feels Like 52.3 °F
N
4.0
Wind Variable Wind from West
Gusts 6.0 mph

Today
High -- | Low -- °F
--% Chance of Precip.
Yesterday
High -- | Low -- °F
Precip. -- in
Pressure 30.04 in
Visibility 10.0 miles
Clouds Clear
Dew Point 49 °F
Humidity 89%
Rainfall 0.00 in
Snow Depth Not available.
7:04 AM 6:55 PM
Waning Crescent, 1% visible
METAR KAPC 300454Z 25006KT 10SM CLR 12/09 A3006 RMK AO2 SLP172 T01170094
Pressure 30.04 in
Visibility 10.0 miles
Clouds Clear
Dew Point 49 °F
Humidity 89%
Rainfall 0.00 in
Snow Depth Not available.
7:04 AM 6:55 PM
Waning Crescent, 1% visible
METAR KAPC 300454Z 25006KT 10SM CLR 12/09 A3006 RMK AO2 SLP172 T01170094

10-Day Weather Forecast

Almanac

Astronomy

Sep. 29, 2016 Rise Set
Actual Time
Civil Twilight
Nautical Twilight
Astronomical Twilight
Moon
Length of Visible Light
Length of Day
Tomorrow will be .
, % of the Moon is Illuminated

Today's Extremes

State Highs State Lows

Community

WunderPhotos

Upload Photos

1,942,665 photos uploaded!

WunderBlog® & News

Nearby

Air Quality

  Air Quality AQ Index Pollutant
Not available.

Snow Depth

Station Depth Elevation

Earthquake Activity

City Distance Mag. Time & Date
Minimum magnitude displayed is 2.5.

Coastal Water Temperatures

Place Temperature

Stations

Nearby Weather Stations

Station Location Temp. Windchill Dew Point Humidity Wind Precip. Elev Updated Type
                   

Watches & Warnings

There are currently no watches in effect.